sensor_id;sensor_type;location;lat;lon;timestamp;P1;durP1;ratioP1;P2;durP2;ratioP2
1957;SDS011;979;51.076;13.748;2022-07-01T00:02:38;30.20;;;28.10;;
1957;SDS011;979;51.076;13.748;2022-07-01T00:05:12;30.87;;;28.60;;
1957;SDS011;979;51.076;13.748;2022-07-01T00:07:46;30.20;;;28.00;;
1957;SDS011;979;51.076;13.748;2022-07-01T00:10:24;30.47;;;27.90;;
1957;SDS011;979;51.076;13.748;2022-07-01T00:13:02;28.70;;;26.70;;
1957;SDS011;979;51.076;13.748;2022-07-01T00:15:37;29.27;;;27.27;;
1957;SDS011;979;51.076;13.748;2022-07-01T00:18:09;30.17;;;27.87;;
1957;SDS011;979;51.076;13.748;2022-07-01T00:20:40;30.93;;;28.23;;
1957;SDS011;979;51.076;13.748;2022-07-01T00:23:14;29.70;;;27.60;;
1957;SDS011;979;51.076;13.748;2022-07-01T00:25:43;31.87;;;29.67;;
1957;SDS011;979;51.076;13.748;2022-07-01T00:28:17;28.27;;;26.37;;
1957;SDS011;979;51.076;13.748;2022-07-01T00:30:55;28.80;;;26.93;;
1957;SDS011;979;51.076;13.748;2022-07-01T00:33:31;28.90;;;27.00;;
1957;SDS011;979;51.076;13.748;2022-07-01T00:36:02;30.93;;;28.40;;
1957;SDS011;979;51.076;13.748;2022-07-01T00:38:31;30.37;;;28.10;;
1957;SDS011;979;51.076;13.748;2022-07-01T00:41:00;31.43;;;29.33;;
1957;SDS011;979;51.076;13.748;2022-07-01T00:43:42;30.30;;;28.00;;
1957;SDS011;979;51.076;13.748;2022-07-01T00:46:23;32.57;;;30.37;;
1957;SDS011;979;51.076;13.748;2022-07-01T00:48:53;30.93;;;28.93;;
1957;SDS011;979;51.076;13.748;2022-07-01T00:51:23;32.07;;;29.57;;
1957;SDS011;979;51.076;13.748;2022-07-01T00:53:57;31.37;;;29.07;;
1957;SDS011;979;51.076;13.748;2022-07-01T00:56:27;31.80;;;29.40;;
1957;SDS011;979;51.076;13.748;2022-07-01T00:59:04;32.43;;;30.20;;
1957;SDS011;979;51.076;13.748;2022-07-01T01:01:37;31.50;;;29.17;;
1957;SDS011;979;51.076;13.748;2022-07-01T01:04:29;31.50;;;29.20;;
1957;SDS011;979;51.076;13.748;2022-07-01T01:07:06;31.07;;;28.87;;
1957;SDS011;979;51.076;13.748;2022-07-01T01:09:42;30.30;;;28.20;;
1957;SDS011;979;51.076;13.748;2022-07-01T01:12:25;30.60;;;28.33;;
1957;SDS011;979;51.076;13.748;2022-07-01T01:15:01;32.00;;;29.70;;
1957;SDS011;979;51.076;13.748;2022-07-01T01:17:32;31.00;;;28.93;;
1957;SDS011;979;51.076;13.748;2022-07-01T01:20:04;30.83;;;28.33;;
1957;SDS011;979;51.076;13.748;2022-07-01T01:22:44;31.27;;;28.77;;
1957;SDS011;979;51.076;13.748;2022-07-01T01:25:33;32.20;;;29.70;;
1957;SDS011;979;51.076;13.748;2022-07-01T01:28:14;31.63;;;29.13;;
1957;SDS011;979;51.076;13.748;2022-07-01T01:30:47;31.23;;;28.93;;
1957;SDS011;979;51.076;13.748;2022-07-01T01:33:20;30.87;;;28.57;;
1957;SDS011;979;51.076;13.748;2022-07-01T01:35:53;32.67;;;30.27;;
1957;SDS011;979;51.076;13.748;2022-07-01T01:38:34;31.83;;;29.57;;
1957;SDS011;979;51.076;13.748;2022-07-01T01:41:03;31.67;;;29.33;;
1957;SDS011;979;51.076;13.748;2022-07-01T01:43:34;29.63;;;27.63;;
1957;SDS011;979;51.076;13.748;2022-07-01T01:46:03;30.97;;;28.37;;
1957;SDS011;979;51.076;13.748;2022-07-01T01:48:31;30.60;;;28.30;;
1957;SDS011;979;51.076;13.748;2022-07-01T01:51:08;30.70;;;28.40;;
1957;SDS011;979;51.076;13.748;2022-07-01T01:53:50;31.03;;;28.63;;
1957;SDS011;979;51.076;13.748;2022-07-01T01:56:24;29.40;;;27.40;;
1957;SDS011;979;51.076;13.748;2022-07-01T01:58:56;30.50;;;28.20;;
1957;SDS011;979;51.076;13.748;2022-07-01T02:01:34;31.00;;;28.50;;
1957;SDS011;979;51.076;13.748;2022-07-01T02:04:10;30.90;;;28.60;;
1957;SDS011;979;51.076;13.748;2022-07-01T02:06:51;31.63;;;29.23;;
1957;SDS011;979;51.076;13.748;2022-07-01T02:09:22;30.60;;;28.20;;
1957;SDS011;979;51.076;13.748;2022-07-01T02:11:57;31.07;;;28.70;;
1957;SDS011;979;51.076;13.748;2022-07-01T02:14:26;31.33;;;28.90;;
1957;SDS011;979;51.076;13.748;2022-07-01T02:16:55;30.53;;;28.00;;
1957;SDS011;979;51.076;13.748;2022-07-01T02:19:28;31.20;;;28.53;;
1957;SDS011;979;51.076;13.748;2022-07-01T02:22:01;31.83;;;29.03;;
1957;SDS011;979;51.076;13.748;2022-07-01T02:24:31;30.37;;;28.17;;
1957;SDS011;979;51.076;13.748;2022-07-01T02:27:01;29.13;;;27.10;;
1957;SDS011;979;51.076;13.748;2022-07-01T02:29:29;29.10;;;27.00;;
1957;SDS011;979;51.076;13.748;2022-07-01T02:31:57;29.33;;;27.03;;
1957;SDS011;979;51.076;13.748;2022-07-01T02:34:26;28.63;;;26.60;;
1957;SDS011;979;51.076;13.748;2022-07-01T02:36:54;30.63;;;28.43;;
1957;SDS011;979;51.076;13.748;2022-07-01T02:39:24;29.70;;;27.40;;
1957;SDS011;979;51.076;13.748;2022-07-01T02:41:54;31.10;;;28.60;;
1957;SDS011;979;51.076;13.748;2022-07-01T02:44:40;30.07;;;27.83;;
1957;SDS011;979;51.076;13.748;2022-07-01T02:47:08;29.50;;;27.40;;
1957;SDS011;979;51.076;13.748;2022-07-01T02:49:36;29.10;;;27.10;;
1957;SDS011;979;51.076;13.748;2022-07-01T02:52:05;29.43;;;27.23;;
1957;SDS011;979;51.076;13.748;2022-07-01T02:54:34;30.40;;;28.10;;
1957;SDS011;979;51.076;13.748;2022-07-01T02:57:07;30.83;;;28.40;;
1957;SDS011;979;51.076;13.748;2022-07-01T02:59:42;32.30;;;29.97;;
1957;SDS011;979;51.076;13.748;2022-07-01T03:02:12;29.40;;;27.20;;
1957;SDS011;979;51.076;13.748;2022-07-01T03:04:44;31.20;;;28.80;;
1957;SDS011;979;51.076;13.748;2022-07-01T03:07:15;31.60;;;28.90;;
1957;SDS011;979;51.076;13.748;2022-07-01T03:09:45;29.60;;;27.40;;
1957;SDS011;979;51.076;13.748;2022-07-01T03:12:15;31.97;;;29.40;;
1957;SDS011;979;51.076;13.748;2022-07-01T03:14:52;30.40;;;27.83;;
1957;SDS011;979;51.076;13.748;2022-07-01T03:17:24;29.33;;;27.37;;
1957;SDS011;979;51.076;13.748;2022-07-01T03:20:07;29.43;;;27.30;;
1957;SDS011;979;51.076;13.748;2022-07-01T03:22:37;28.83;;;26.70;;
1957;SDS011;979;51.076;13.748;2022-07-01T03:25:09;30.63;;;28.30;;
1957;SDS011;979;51.076;13.748;2022-07-01T03:27:42;29.63;;;27.30;;
1957;SDS011;979;51.076;13.748;2022-07-01T03:30:16;29.90;;;27.70;;
1957;SDS011;979;51.076;13.748;2022-07-01T03:32:45;30.47;;;28.13;;
1957;SDS011;979;51.076;13.748;2022-07-01T03:35:16;31.17;;;28.17;;
1957;SDS011;979;51.076;13.748;2022-07-01T03:38:09;31.57;;;28.80;;
1957;SDS011;979;51.076;13.748;2022-07-01T03:40:38;31.67;;;29.10;;
1957;SDS011;979;51.076;13.748;2022-07-01T03:43:09;29.70;;;27.33;;
1957;SDS011;979;51.076;13.748;2022-07-01T03:45:38;29.23;;;27.23;;
1957;SDS011;979;51.076;13.748;2022-07-01T03:48:06;31.50;;;29.00;;
1957;SDS011;979;51.076;13.748;2022-07-01T03:50:35;29.90;;;27.60;;
1957;SDS011;979;51.076;13.748;2022-07-01T03:53:04;30.47;;;28.17;;
1957;SDS011;979;51.076;13.748;2022-07-01T03:55:49;28.67;;;26.77;;
1957;SDS011;979;51.076;13.748;2022-07-01T03:58:22;28.97;;;27.03;;
1957;SDS011;979;51.076;13.748;2022-07-01T04:00:50;28.30;;;26.30;;
1957;SDS011;979;51.076;13.748;2022-07-01T04:03:19;27.73;;;25.70;;
1957;SDS011;979;51.076;13.748;2022-07-01T04:05:52;27.50;;;25.73;;
1957;SDS011;979;51.076;13.748;2022-07-01T04:08:25;28.67;;;26.53;;
1957;SDS011;979;51.076;13.748;2022-07-01T04:10:55;27.30;;;25.40;;
1957;SDS011;979;51.076;13.748;2022-07-01T04:13:26;29.30;;;27.23;;
1957;SDS011;979;51.076;13.748;2022-07-01T04:15:59;29.77;;;27.57;;
1957;SDS011;979;51.076;13.748;2022-07-01T04:18:34;27.80;;;25.87;;
1957;SDS011;979;51.076;13.748;2022-07-01T04:21:05;28.70;;;26.80;;
1957;SDS011;979;51.076;13.748;2022-07-01T04:23:51;29.10;;;26.87;;
1957;SDS011;979;51.076;13.748;2022-07-01T04:26:19;28.37;;;26.50;;
1957;SDS011;979;51.076;13.748;2022-07-01T04:29:06;29.00;;;26.90;;
1957;SDS011;979;51.076;13.748;2022-07-01T04:31:34;26.73;;;24.90;;
1957;SDS011;979;51.076;13.748;2022-07-01T04:34:03;27.60;;;25.57;;
1957;SDS011;979;51.076;13.748;2022-07-01T04:36:35;28.27;;;26.37;;
1957;SDS011;979;51.076;13.748;2022-07-01T04:39:07;27.60;;;25.80;;
1957;SDS011;979;51.076;13.748;2022-07-01T04:41:36;28.83;;;26.73;;
1957;SDS011;979;51.076;13.748;2022-07-01T04:44:26;27.30;;;25.37;;
1957;SDS011;979;51.076;13.748;2022-07-01T04:46:55;28.77;;;26.60;;
1957;SDS011;979;51.076;13.748;2022-07-01T04:49:23;29.53;;;27.23;;
1957;SDS011;979;51.076;13.748;2022-07-01T04:51:54;28.27;;;26.07;;
1957;SDS011;979;51.076;13.748;2022-07-01T04:54:23;27.87;;;25.97;;
1957;SDS011;979;51.076;13.748;2022-07-01T04:56:53;28.23;;;26.43;;
1957;SDS011;979;51.076;13.748;2022-07-01T04:59:24;26.83;;;25.00;;
1957;SDS011;979;51.076;13.748;2022-07-01T05:01:54;28.73;;;26.73;;
1957;SDS011;979;51.076;13.748;2022-07-01T05:04:22;28.17;;;25.93;;
1957;SDS011;979;51.076;13.748;2022-07-01T05:06:55;27.73;;;25.73;;
1957;SDS011;979;51.076;13.748;2022-07-01T05:09:27;28.77;;;26.77;;
1957;SDS011;979;51.076;13.748;2022-07-01T05:12:01;27.80;;;25.77;;
1957;SDS011;979;51.076;13.748;2022-07-01T05:14:38;28.37;;;26.50;;
1957;SDS011;979;51.076;13.748;2022-07-01T05:17:16;25.87;;;24.27;;
1957;SDS011;979;51.076;13.748;2022-07-01T05:19:55;27.90;;;25.90;;
1957;SDS011;979;51.076;13.748;2022-07-01T05:22:44;27.03;;;24.93;;
1957;SDS011;979;51.076;13.748;2022-07-01T05:25:17;25.80;;;24.10;;
1957;SDS011;979;51.076;13.748;2022-07-01T05:27:56;26.00;;;24.00;;
1957;SDS011;979;51.076;13.748;2022-07-01T05:30:33;26.07;;;24.37;;
1957;SDS011;979;51.076;13.748;2022-07-01T05:33:13;26.47;;;24.57;;
1957;SDS011;979;51.076;13.748;2022-07-01T05:35:53;26.50;;;24.50;;
1957;SDS011;979;51.076;13.748;2022-07-01T05:38:23;24.43;;;22.93;;
1957;SDS011;979;51.076;13.748;2022-07-01T05:40:51;24.90;;;23.30;;
1957;SDS011;979;51.076;13.748;2022-07-01T05:43:20;25.77;;;23.87;;
1957;SDS011;979;51.076;13.748;2022-07-01T05:45:55;24.87;;;23.37;;
1957;SDS011;979;51.076;13.748;2022-07-01T05:48:32;26.40;;;24.63;;
1957;SDS011;979;51.076;13.748;2022-07-01T05:51:06;24.50;;;23.10;;
1957;SDS011;979;51.076;13.748;2022-07-01T05:53:42;26.03;;;24.53;;
1957;SDS011;979;51.076;13.748;2022-07-01T05:56:14;23.77;;;22.57;;
1957;SDS011;979;51.076;13.748;2022-07-01T05:58:48;25.37;;;23.73;;
1957;SDS011;979;51.076;13.748;2022-07-01T06:01:17;26.97;;;25.27;;
1957;SDS011;979;51.076;13.748;2022-07-01T06:03:49;25.20;;;23.70;;
1957;SDS011;979;51.076;13.748;2022-07-01T06:06:17;26.53;;;24.93;;
1957;SDS011;979;51.076;13.748;2022-07-01T06:08:46;26.40;;;24.60;;
1957;SDS011;979;51.076;13.748;2022-07-01T06:11:17;26.47;;;24.70;;
1957;SDS011;979;51.076;13.748;2022-07-01T06:13:46;26.30;;;24.30;;
1957;SDS011;979;51.076;13.748;2022-07-01T06:16:17;26.40;;;24.80;;
1957;SDS011;979;51.076;13.748;2022-07-01T06:18:59;30.53;;;28.67;;
1957;SDS011;979;51.076;13.748;2022-07-01T06:21:38;28.70;;;26.97;;
1957;SDS011;979;51.076;13.748;2022-07-01T06:24:11;29.77;;;27.80;;
1957;SDS011;979;51.076;13.748;2022-07-01T06:26:45;30.00;;;27.80;;
1957;SDS011;979;51.076;13.748;2022-07-01T06:29:17;30.93;;;28.37;;
1957;SDS011;979;51.076;13.748;2022-07-01T06:31:48;26.63;;;24.97;;
1957;SDS011;979;51.076;13.748;2022-07-01T06:34:20;29.63;;;27.03;;
1957;SDS011;979;51.076;13.748;2022-07-01T06:36:54;28.90;;;27.10;;
1957;SDS011;979;51.076;13.748;2022-07-01T06:39:29;27.23;;;25.40;;
1957;SDS011;979;51.076;13.748;2022-07-01T06:42:01;28.90;;;26.60;;
1957;SDS011;979;51.076;13.748;2022-07-01T06:44:32;28.60;;;26.90;;
1957;SDS011;979;51.076;13.748;2022-07-01T06:47:06;29.33;;;27.63;;
1957;SDS011;979;51.076;13.748;2022-07-01T06:49:42;28.60;;;26.70;;
1957;SDS011;979;51.076;13.748;2022-07-01T06:52:20;28.93;;;26.90;;
1957;SDS011;979;51.076;13.748;2022-07-01T06:54:56;28.33;;;26.33;;
1957;SDS011;979;51.076;13.748;2022-07-01T06:57:30;28.60;;;26.73;;
1957;SDS011;979;51.076;13.748;2022-07-01T07:00:08;29.57;;;27.67;;
1957;SDS011;979;51.076;13.748;2022-07-01T07:03:07;30.20;;;28.10;;
1957;SDS011;979;51.076;13.748;2022-07-01T07:36:48;28.63;;;26.63;;
1957;SDS011;979;51.076;13.748;2022-07-01T07:39:20;29.10;;;27.30;;
1957;SDS011;979;51.076;13.748;2022-07-01T07:42:16;29.50;;;27.53;;
1957;SDS011;979;51.076;13.748;2022-07-01T07:45:14;28.87;;;26.90;;
1957;SDS011;979;51.076;13.748;2022-07-01T07:48:15;30.53;;;28.03;;
1957;SDS011;979;51.076;13.748;2022-07-01T07:51:14;30.73;;;28.63;;
1957;SDS011;979;51.076;13.748;2022-07-01T08:07:57;31.87;;;29.67;;
1957;SDS011;979;51.076;13.748;2022-07-01T08:11:01;29.27;;;27.07;;
1957;SDS011;979;51.076;13.748;2022-07-01T08:13:59;29.80;;;27.60;;
1957;SDS011;979;51.076;13.748;2022-07-01T08:17:00;29.00;;;27.00;;
1957;SDS011;979;51.076;13.748;2022-07-01T08:19:56;27.93;;;26.10;;
1957;SDS011;979;51.076;13.748;2022-07-01T08:22:52;29.27;;;27.30;;
1957;SDS011;979;51.076;13.748;2022-07-01T09:17:11;29.97;;;27.30;;
1957;SDS011;979;51.076;13.748;2022-07-01T09:20:29;29.57;;;27.20;;
1957;SDS011;979;51.076;13.748;2022-07-01T09:23:26;29.93;;;27.70;;
1957;SDS011;979;51.076;13.748;2022-07-01T09:26:18;27.77;;;25.63;;
1957;SDS011;979;51.076;13.748;2022-07-01T09:28:51;27.33;;;25.50;;
1957;SDS011;979;51.076;13.748;2022-07-01T09:31:23;30.97;;;28.50;;
1957;SDS011;979;51.076;13.748;2022-07-01T09:34:03;28.60;;;26.50;;
1957;SDS011;979;51.076;13.748;2022-07-01T09:36:33;29.20;;;26.97;;
1957;SDS011;979;51.076;13.748;2022-07-01T09:39:06;29.33;;;27.23;;
1957;SDS011;979;51.076;13.748;2022-07-01T09:41:55;32.00;;;29.67;;
1957;SDS011;979;51.076;13.748;2022-07-01T09:44:24;32.07;;;29.53;;
1957;SDS011;979;51.076;13.748;2022-07-01T09:46:56;33.00;;;30.43;;
1957;SDS011;979;51.076;13.748;2022-07-01T09:49:27;31.43;;;29.07;;
1957;SDS011;979;51.076;13.748;2022-07-01T09:51:57;32.23;;;29.70;;
1957;SDS011;979;51.076;13.748;2022-07-01T09:54:25;31.27;;;29.07;;
1957;SDS011;979;51.076;13.748;2022-07-01T09:56:53;29.83;;;27.83;;
1957;SDS011;979;51.076;13.748;2022-07-01T09:59:24;32.17;;;29.90;;
1957;SDS011;979;51.076;13.748;2022-07-01T10:01:53;31.67;;;29.40;;
1957;SDS011;979;51.076;13.748;2022-07-01T10:04:29;30.60;;;28.50;;
1957;SDS011;979;51.076;13.748;2022-07-01T10:07:09;32.43;;;30.27;;
1957;SDS011;979;51.076;13.748;2022-07-01T10:09:55;30.60;;;28.40;;
1957;SDS011;979;51.076;13.748;2022-07-01T10:12:36;27.70;;;25.87;;
1957;SDS011;979;51.076;13.748;2022-07-01T10:15:09;30.40;;;28.30;;
1957;SDS011;979;51.076;13.748;2022-07-01T10:17:41;27.50;;;25.60;;
1957;SDS011;979;51.076;13.748;2022-07-01T10:20:12;29.00;;;26.80;;
1957;SDS011;979;51.076;13.748;2022-07-01T10:22:49;28.70;;;26.30;;
1957;SDS011;979;51.076;13.748;2022-07-01T10:25:34;27.07;;;25.23;;
1957;SDS011;979;51.076;13.748;2022-07-01T10:28:12;27.30;;;25.70;;
1957;SDS011;979;51.076;13.748;2022-07-01T10:31:00;27.03;;;25.33;;
1957;SDS011;979;51.076;13.748;2022-07-01T10:33:33;27.40;;;25.60;;
1957;SDS011;979;51.076;13.748;2022-07-01T10:36:17;27.27;;;25.47;;
1957;SDS011;979;51.076;13.748;2022-07-01T10:42:01;26.73;;;25.07;;
1957;SDS011;979;51.076;13.748;2022-07-01T10:47:35;26.17;;;24.53;;
1957;SDS011;979;51.076;13.748;2022-07-01T10:50:05;25.80;;;24.30;;
1957;SDS011;979;51.076;13.748;2022-07-01T10:52:40;26.00;;;24.50;;
1957;SDS011;979;51.076;13.748;2022-07-01T10:55:35;25.73;;;24.27;;
1957;SDS011;979;51.076;13.748;2022-07-01T10:58:04;25.33;;;24.00;;
1957;SDS011;979;51.076;13.748;2022-07-01T11:00:34;26.13;;;24.37;;
1957;SDS011;979;51.076;13.748;2022-07-01T11:03:10;23.73;;;22.23;;
1957;SDS011;979;51.076;13.748;2022-07-01T11:06:03;24.90;;;23.50;;
1957;SDS011;979;51.076;13.748;2022-07-01T11:08:33;24.27;;;22.90;;
1957;SDS011;979;51.076;13.748;2022-07-01T11:11:04;24.80;;;23.30;;
1957;SDS011;979;51.076;13.748;2022-07-01T11:13:49;25.47;;;23.90;;
1957;SDS011;979;51.076;13.748;2022-07-01T11:16:24;23.67;;;22.47;;
1957;SDS011;979;51.076;13.748;2022-07-01T11:19:07;24.70;;;23.30;;
1957;SDS011;979;51.076;13.748;2022-07-01T11:21:35;23.60;;;22.30;;
1957;SDS011;979;51.076;13.748;2022-07-01T11:24:24;21.80;;;20.80;;
1957;SDS011;979;51.076;13.748;2022-07-01T11:27:04;22.30;;;21.10;;
1957;SDS011;979;51.076;13.748;2022-07-01T11:29:42;20.37;;;19.47;;
1957;SDS011;979;51.076;13.748;2022-07-01T11:32:23;19.70;;;18.70;;
1957;SDS011;979;51.076;13.748;2022-07-01T11:34:53;18.77;;;17.97;;
1957;SDS011;979;51.076;13.748;2022-07-01T11:37:31;19.70;;;18.80;;
1957;SDS011;979;51.076;13.748;2022-07-01T11:40:38;22.20;;;21.10;;
1957;SDS011;979;51.076;13.748;2022-07-01T11:43:35;25.20;;;23.90;;
1957;SDS011;979;51.076;13.748;2022-07-01T11:46:12;29.00;;;27.40;;
1957;SDS011;979;51.076;13.748;2022-07-01T11:48:42;27.10;;;25.37;;
1957;SDS011;979;51.076;13.748;2022-07-01T11:51:20;27.20;;;25.60;;
1957;SDS011;979;51.076;13.748;2022-07-01T11:53:50;26.43;;;24.90;;
1957;SDS011;979;51.076;13.748;2022-07-01T11:56:28;26.03;;;24.63;;
1957;SDS011;979;51.076;13.748;2022-07-01T11:58:58;24.27;;;23.17;;
1957;SDS011;979;51.076;13.748;2022-07-01T12:01:28;24.87;;;23.57;;
1957;SDS011;979;51.076;13.748;2022-07-01T12:03:59;28.47;;;26.77;;
1957;SDS011;979;51.076;13.748;2022-07-01T12:06:36;30.60;;;29.00;;
1957;SDS011;979;51.076;13.748;2022-07-01T12:09:11;34.67;;;32.67;;
1957;SDS011;979;51.076;13.748;2022-07-01T12:11:54;32.97;;;31.17;;
1957;SDS011;979;51.076;13.748;2022-07-01T12:14:24;33.80;;;31.90;;
1957;SDS011;979;51.076;13.748;2022-07-01T12:17:24;32.83;;;30.93;;
1957;SDS011;979;51.076;13.748;2022-07-01T12:20:46;36.43;;;34.30;;
1957;SDS011;979;51.076;13.748;2022-07-01T13:19:15;19.40;;;18.60;;
1957;SDS011;979;51.076;13.748;2022-07-01T13:21:44;20.30;;;19.40;;
1957;SDS011;979;51.076;13.748;2022-07-01T13:24:15;18.70;;;18.00;;
1957;SDS011;979;51.076;13.748;2022-07-01T13:26:59;17.97;;;17.07;;
1957;SDS011;979;51.076;13.748;2022-07-01T13:29:28;18.03;;;17.37;;
1957;SDS011;979;51.076;13.748;2022-07-01T13:32:17;19.07;;;18.37;;
1957;SDS011;979;51.076;13.748;2022-07-01T13:34:59;19.20;;;18.50;;
1957;SDS011;979;51.076;13.748;2022-07-01T13:38:07;20.57;;;19.67;;
1957;SDS011;979;51.076;13.748;2022-07-01T13:41:14;21.63;;;20.63;;
1957;SDS011;979;51.076;13.748;2022-07-01T13:44:11;22.77;;;21.67;;
1957;SDS011;979;51.076;13.748;2022-07-01T13:47:10;22.50;;;21.43;;
1957;SDS011;979;51.076;13.748;2022-07-01T13:53:56;23.37;;;21.97;;
1957;SDS011;979;51.076;13.748;2022-07-01T14:00:30;22.70;;;21.53;;
1957;SDS011;979;51.076;13.748;2022-07-01T14:03:23;22.77;;;21.37;;
1957;SDS011;979;51.076;13.748;2022-07-01T14:14:32;21.83;;;20.73;;
1957;SDS011;979;51.076;13.748;2022-07-01T14:17:26;21.80;;;20.70;;
1957;SDS011;979;51.076;13.748;2022-07-01T14:34:22;19.70;;;18.90;;
1957;SDS011;979;51.076;13.748;2022-07-01T14:36:56;20.70;;;19.80;;
1957;SDS011;979;51.076;13.748;2022-07-01T14:39:33;19.50;;;18.53;;
1957;SDS011;979;51.076;13.748;2022-07-01T14:42:15;17.40;;;16.80;;
1957;SDS011;979;51.076;13.748;2022-07-01T14:45:21;17.13;;;16.53;;
1957;SDS011;979;51.076;13.748;2022-07-01T14:48:31;17.13;;;16.40;;
1957;SDS011;979;51.076;13.748;2022-07-01T14:52:00;16.07;;;15.40;;
1957;SDS011;979;51.076;13.748;2022-07-01T14:55:51;15.90;;;15.40;;
1957;SDS011;979;51.076;13.748;2022-07-01T14:59:00;17.03;;;16.43;;
1957;SDS011;979;51.076;13.748;2022-07-01T15:02:18;16.27;;;15.67;;
1957;SDS011;979;51.076;13.748;2022-07-01T15:05:03;14.70;;;14.20;;
1957;SDS011;979;51.076;13.748;2022-07-01T15:08:06;15.80;;;15.30;;
1957;SDS011;979;51.076;13.748;2022-07-01T15:14:01;15.27;;;14.67;;
1957;SDS011;979;51.076;13.748;2022-07-01T15:16:42;14.93;;;14.53;;
1957;SDS011;979;51.076;13.748;2022-07-01T15:19:47;16.20;;;15.70;;
1957;SDS011;979;51.076;13.748;2022-07-01T15:22:28;14.40;;;14.00;;
1957;SDS011;979;51.076;13.748;2022-07-01T15:31:54;15.30;;;14.80;;
1957;SDS011;979;51.076;13.748;2022-07-01T15:34:34;15.23;;;14.80;;
1957;SDS011;979;51.076;13.748;2022-07-01T15:41:11;14.80;;;14.40;;
1957;SDS011;979;51.076;13.748;2022-07-01T15:44:16;14.17;;;13.73;;
1957;SDS011;979;51.076;13.748;2022-07-01T15:46:57;16.93;;;16.13;;
1957;SDS011;979;51.076;13.748;2022-07-01T15:49:50;15.37;;;14.70;;
1957;SDS011;979;51.076;13.748;2022-07-01T15:52:23;14.50;;;14.00;;
1957;SDS011;979;51.076;13.748;2022-07-01T15:54:54;14.53;;;14.03;;
1957;SDS011;979;51.076;13.748;2022-07-01T15:57:22;15.13;;;14.63;;
1957;SDS011;979;51.076;13.748;2022-07-01T16:00:45;14.70;;;14.10;;
1957;SDS011;979;51.076;13.748;2022-07-01T16:04:15;15.10;;;14.50;;
1957;SDS011;979;51.076;13.748;2022-07-01T16:06:45;15.00;;;14.50;;
1957;SDS011;979;51.076;13.748;2022-07-01T16:09:44;15.90;;;15.20;;
1957;SDS011;979;51.076;13.748;2022-07-01T16:12:33;18.10;;;17.27;;
1957;SDS011;979;51.076;13.748;2022-07-01T16:15:16;18.43;;;17.47;;
1957;SDS011;979;51.076;13.748;2022-07-01T16:18:13;16.60;;;16.00;;
1957;SDS011;979;51.076;13.748;2022-07-01T16:20:51;16.30;;;15.60;;
1957;SDS011;979;51.076;13.748;2022-07-01T16:23:32;15.50;;;14.90;;
1957;SDS011;979;51.076;13.748;2022-07-01T16:26:29;16.60;;;15.90;;
1957;SDS011;979;51.076;13.748;2022-07-01T16:29:19;16.87;;;16.17;;
1957;SDS011;979;51.076;13.748;2022-07-01T16:31:57;16.70;;;15.70;;
1957;SDS011;979;51.076;13.748;2022-07-01T16:34:47;16.30;;;15.60;;
1957;SDS011;979;51.076;13.748;2022-07-01T16:37:52;17.70;;;16.90;;
1957;SDS011;979;51.076;13.748;2022-07-01T16:40:37;18.20;;;17.30;;
1957;SDS011;979;51.076;13.748;2022-07-01T16:43:08;18.97;;;18.07;;
1957;SDS011;979;51.076;13.748;2022-07-01T16:45:38;17.83;;;17.03;;
1957;SDS011;979;51.076;13.748;2022-07-01T16:48:40;34.60;;;31.80;;
1957;SDS011;979;51.076;13.748;2022-07-01T16:51:22;19.03;;;18.13;;
1957;SDS011;979;51.076;13.748;2022-07-01T16:54:29;22.47;;;21.00;;
1957;SDS011;979;51.076;13.748;2022-07-01T16:57:25;21.23;;;20.03;;
1957;SDS011;979;51.076;13.748;2022-07-01T17:00:39;17.47;;;16.77;;
1957;SDS011;979;51.076;13.748;2022-07-01T17:03:28;17.87;;;17.10;;
1957;SDS011;979;51.076;13.748;2022-07-01T17:06:06;18.33;;;17.10;;
1957;SDS011;979;51.076;13.748;2022-07-01T17:08:39;17.50;;;16.60;;
1957;SDS011;979;51.076;13.748;2022-07-01T17:11:20;17.20;;;16.50;;
1957;SDS011;979;51.076;13.748;2022-07-01T17:14:17;18.60;;;17.80;;
1957;SDS011;979;51.076;13.748;2022-07-01T17:17:11;21.07;;;19.87;;
1957;SDS011;979;51.076;13.748;2022-07-01T17:19:47;18.57;;;17.77;;
1957;SDS011;979;51.076;13.748;2022-07-01T17:22:43;17.60;;;16.90;;
1957;SDS011;979;51.076;13.748;2022-07-01T17:25:33;17.50;;;16.80;;
1957;SDS011;979;51.076;13.748;2022-07-01T17:28:22;17.30;;;16.60;;
1957;SDS011;979;51.076;13.748;2022-07-01T17:31:15;18.57;;;17.73;;
1957;SDS011;979;51.076;13.748;2022-07-01T17:34:10;18.57;;;17.57;;
1957;SDS011;979;51.076;13.748;2022-07-01T17:36:55;17.80;;;16.67;;
1957;SDS011;979;51.076;13.748;2022-07-01T17:39:31;16.80;;;16.00;;
1957;SDS011;979;51.076;13.748;2022-07-01T17:42:19;18.00;;;17.10;;
1957;SDS011;979;51.076;13.748;2022-07-01T17:45:11;18.33;;;17.50;;
1957;SDS011;979;51.076;13.748;2022-07-01T17:47:48;19.17;;;18.27;;
1957;SDS011;979;51.076;13.748;2022-07-01T17:54:44;18.27;;;17.37;;
1957;SDS011;979;51.076;13.748;2022-07-01T18:11:40;18.80;;;17.83;;
1957;SDS011;979;51.076;13.748;2022-07-01T18:14:26;18.70;;;17.60;;
1957;SDS011;979;51.076;13.748;2022-07-01T18:17:24;19.03;;;17.93;;
1957;SDS011;979;51.076;13.748;2022-07-01T18:20:16;18.73;;;17.80;;
1957;SDS011;979;51.076;13.748;2022-07-01T18:23:03;20.40;;;19.30;;
1957;SDS011;979;51.076;13.748;2022-07-01T18:25:49;19.87;;;18.77;;
1957;SDS011;979;51.076;13.748;2022-07-01T18:28:34;20.67;;;19.30;;
1957;SDS011;979;51.076;13.748;2022-07-01T18:31:18;21.07;;;19.57;;
1957;SDS011;979;51.076;13.748;2022-07-01T18:33:58;19.63;;;18.47;;
1957;SDS011;979;51.076;13.748;2022-07-01T18:36:36;20.40;;;19.20;;
1957;SDS011;979;51.076;13.748;2022-07-01T18:39:16;19.70;;;18.67;;
1957;SDS011;979;51.076;13.748;2022-07-01T18:41:52;19.30;;;18.20;;
1957;SDS011;979;51.076;13.748;2022-07-01T18:44:36;20.40;;;19.10;;
1957;SDS011;979;51.076;13.748;2022-07-01T18:47:16;22.93;;;21.10;;
1957;SDS011;979;51.076;13.748;2022-07-01T18:50:13;20.67;;;19.40;;
1957;SDS011;979;51.076;13.748;2022-07-01T18:56:15;22.00;;;20.20;;
1957;SDS011;979;51.076;13.748;2022-07-01T18:58:55;21.23;;;19.73;;
1957;SDS011;979;51.076;13.748;2022-07-01T19:02:04;21.40;;;20.10;;
1957;SDS011;979;51.076;13.748;2022-07-01T19:05:18;20.40;;;19.30;;
1957;SDS011;979;51.076;13.748;2022-07-01T19:08:05;22.10;;;20.60;;
1957;SDS011;979;51.076;13.748;2022-07-01T19:10:46;23.70;;;22.10;;
1957;SDS011;979;51.076;13.748;2022-07-01T19:13:31;21.47;;;19.87;;
1957;SDS011;979;51.076;13.748;2022-07-01T19:16:10;22.60;;;21.17;;
1957;SDS011;979;51.076;13.748;2022-07-01T19:26:01;23.10;;;21.50;;
1957;SDS011;979;51.076;13.748;2022-07-01T19:28:36;22.23;;;20.73;;
1957;SDS011;979;51.076;13.748;2022-07-01T19:31:16;22.10;;;20.70;;
1957;SDS011;979;51.076;13.748;2022-07-01T19:33:46;22.87;;;21.17;;
1957;SDS011;979;51.076;13.748;2022-07-01T19:36:23;22.07;;;20.77;;
1957;SDS011;979;51.076;13.748;2022-07-01T19:42:20;23.00;;;21.30;;
1957;SDS011;979;51.076;13.748;2022-07-01T19:49:07;22.90;;;21.33;;
1957;SDS011;979;51.076;13.748;2022-07-01T19:51:55;23.80;;;21.70;;
1957;SDS011;979;51.076;13.748;2022-07-01T19:54:25;22.77;;;20.97;;
1957;SDS011;979;51.076;13.748;2022-07-01T19:59:56;23.40;;;21.70;;
1957;SDS011;979;51.076;13.748;2022-07-01T20:02:27;22.33;;;20.63;;
1957;SDS011;979;51.076;13.748;2022-07-01T20:04:57;21.63;;;20.17;;
1957;SDS011;979;51.076;13.748;2022-07-01T20:07:26;22.03;;;20.30;;